| time (UTC) | temp F | wind direction | speed MPH | gust MPH | rain 1hr in | rain 24hr in | rain mn in | humidity % | barometer mb |
| 20260510145005 | 56 | 301 | 1.0 | 9.0 | 0.00 | 0.00 | 0.00 | 64 | 1009.8 |
| 20260510144005 | 56 | 305 | 1.0 | 9.0 | 0.00 | 0.00 | 0.00 | 61 | 1009.8 |
| 20260510143008 | 57 | 316 | 5.0 | 10.0 | 0.00 | 0.00 | 0.00 | 59 | 1009.8 |
| 20260510142005 | 57 | 319 | 9.0 | 12.0 | 0.00 | 0.00 | 0.00 | 58 | 1009.8 |
| 20260510141006 | 57 | 334 | 9.0 | 15.0 | 0.00 | 0.00 | 0.00 | 58 | 1009.9 |
| 20260510140007 | 58 | 298 | 4.0 | 12.0 | 0.00 | 0.00 | 0.00 | 56 | 1010.0 |
| 20260510135005 | 58 | 308 | 4.0 | 14.0 | 0.00 | 0.00 | 0.00 | 59 | 1010.1 |
| 20260510134006 | 58 | 303 | 7.0 | 14.0 | 0.00 | 0.00 | 0.00 | 56 | 1010.2 |
| 20260510133008 | 58 | 304 | 6.0 | 12.0 | 0.00 | 0.00 | 0.00 | 54 | 1010.2 |
| 20260510132005 | 58 | 309 | 5.0 | 13.0 | 0.00 | 0.00 | 0.00 | 59 | 1010.3 |
| 20260510131006 | 58 | 290 | 3.0 | 14.0 | 0.00 | 0.00 | 0.00 | 61 | 1010.4 |
| 20260510130008 | 57 | 313 | 6.0 | 12.0 | 0.00 | 0.00 | 0.00 | 63 | 1010.4 |
| 20260510125006 | 57 | 300 | 1.0 | 12.0 | 0.00 | 0.00 | 0.00 | 65 | 1010.5 |
| 20260510124005 | 57 | 311 | 2.0 | 10.0 | 0.00 | 0.00 | 0.00 | 68 | 1010.7 |
| 20260510123007 | 57 | 305 | 1.0 | 10.0 | 0.00 | 0.00 | 0.00 | 66 | 1010.8 |
| 20260510122006 | 58 | 303 | 1.0 | 6.0 | 0.00 | 0.00 | 0.00 | 67 | 1010.8 |
| 20260510121005 | 58 | 316 | 0.0 | 6.0 | 0.00 | 0.00 | 0.00 | 70 | 1010.8 |
| 20260510120007 | 57 | 293 | 2.0 | 9.0 | 0.00 | 0.00 | 0.00 | 72 | 1010.9 |
| 20260510115006 | 57 | 281 | 5.0 | 12.0 | 0.00 | 0.00 | 0.00 | 75 | 1010.9 |
| 20260510114006 | 57 | 310 | 7.0 | 12.0 | 0.00 | 0.00 | 0.00 | 74 | 1011.0 |
| 20260510113008 | 58 | 284 | 1.0 | 6.0 | 0.00 | 0.00 | 0.00 | 71 | 1011.1 |
| 20260510112005 | 57 | 299 | 1.0 | 5.0 | 0.00 | 0.00 | 0.00 | 68 | 1011.3 |
| 20260510111006 | 57 | 301 | 3.0 | 9.0 | 0.00 | 0.00 | 0.00 | 72 | 1011.4 |
| 20260510110008 | 56 | 295 | 2.0 | 7.0 | 0.00 | 0.00 | 0.00 | 75 | 1011.5 |
| 20260510105005 | 56 | 295 | 2.0 | 7.0 | 0.00 | 0.00 | 0.00 | 76 | 1011.5 |
| 20260510104005 | 56 | 300 | 6.0 | 9.0 | 0.00 | 0.00 | 0.00 | 74 | 1011.5 |
| 20260510103008 | 56 | 245 | 0.0 | 2.0 | 0.00 | 0.00 | 0.00 | 75 | 1011.6 |
| 20260510102006 | 56 | 271 | 1.0 | 10.0 | 0.00 | 0.00 | 0.00 | 76 | 1011.9 |
| 20260510101006 | 56 | 287 | 1.0 | 7.0 | 0.00 | 0.00 | 0.00 | 76 | 1012.0 |
| 20260510100007 | 57 | 239 | 0.0 | 3.0 | 0.00 | 0.00 | 0.00 | 76 | 1012.0 |
| 20260510095005 | 56 | 221 | 0.0 | 2.0 | 0.00 | 0.00 | 0.00 | 75 | 1012.1 |
| 20260510094005 | 55 | 209 | 0.0 | 1.0 | 0.00 | 0.00 | 0.00 | 74 | 1012.1 |
| 20260510093009 | 55 | 221 | 0.0 | 1.0 | 0.00 | 0.00 | 0.00 | 77 | 1012.4 |
| 20260510092006 | 55 | 208 | 0.0 | 1.0 | 0.00 | 0.00 | 0.00 | 77 | 1012.4 |
| 20260510091005 | 54 | 195 | 0.0 | 1.0 | 0.00 | 0.00 | 0.00 | 77 | 1012.5 |
| 20260510090007 | 54 | 202 | 0.0 | 1.0 | 0.00 | 0.00 | 0.00 | 77 | 1012.6 |
| 20260510085005 | 54 | 203 | 0.0 | 0.0 | 0.00 | 0.00 | 0.00 | 78 | 1012.7 |
| 20260510084005 | 54 | 169 | 0.0 | 1.0 | 0.00 | 0.00 | 0.00 | 78 | 1012.7 |
| 20260510083007 | 54 | 176 | 0.0 | 3.0 | 0.00 | 0.00 | 0.00 | 79 | 1012.8 |
| 20260510082005 | 54 | 156 | 1.0 | 3.0 | 0.00 | 0.00 | 0.00 | 80 | 1012.6 |
| 20260510081005 | 53 | 150 | 0.0 | 1.0 | 0.00 | 0.00 | 0.00 | 81 | 1012.6 |
| 20260510080008 | 53 | 146 | 0.0 | 1.0 | 0.00 | 0.00 | 0.00 | 82 | 1012.7 |
| 20260510075005 | 53 | 146 | 0.0 | 2.0 | 0.00 | 0.00 | 0.00 | 84 | 1012.6 |
| 20260510074006 | 52 | 147 | 0.0 | 3.0 | 0.00 | 0.00 | 0.00 | 85 | 1012.6 |
| 20260510073008 | 52 | 134 | 0.0 | 2.0 | 0.00 | 0.00 | 0.00 | 87 | 1012.7 |
| 20260510072006 | 51 | 141 | 0.0 | 0.0 | 0.00 | 0.00 | 0.00 | 88 | 1012.9 |
| 20260510071006 | 50 | 141 | 0.0 | 0.0 | 0.00 | 0.00 | 0.00 | 89 | 1013.0 |
| 20260510070007 | 50 | 141 | 0.0 | 0.0 | 0.00 | 0.00 | 0.00 | 89 | 1013.0 |
| 20260510065006 | 49 | 141 | 0.0 | 1.0 | 0.00 | 0.00 | 0.00 | 90 | 1013.0 |
| 20260510064005 | 49 | 140 | 0.0 | 0.0 | 0.00 | 0.00 | 0.00 | 90 | 1013.0 |
| 20260510063008 | 49 | 136 | 0.0 | 1.0 | 0.00 | 0.00 | 0.00 | 90 | 1013.1 |
| 20260510062007 | 48 | 136 | 0.0 | 0.0 | 0.00 | 0.00 | 0.00 | 90 | 1013.1 |
| 20260510061006 | 48 | 136 | 0.0 | 1.0 | 0.00 | 0.00 | 0.00 | 91 | 1013.3 |
| 20260510060008 | 47 | 136 | 0.0 | 2.0 | 0.00 | 0.00 | 0.00 | 91 | 1013.3 |
| 20260510055006 | 47 | 136 | 0.0 | 1.0 | 0.00 | 0.00 | 0.00 | 91 | 1013.4 |
| 20260510054006 | 47 | 141 | 0.0 | 1.0 | 0.00 | 0.00 | 0.00 | 91 | 1013.4 |
| 20260510053008 | 47 | 139 | 0.0 | 1.0 | 0.00 | 0.00 | 0.00 | 91 | 1013.4 |
| 20260510052006 | 46 | 145 | 2.0 | 6.0 | 0.00 | 0.00 | 0.00 | 91 | 1013.5 |
| 20260510051006 | 46 | 322 | 0.0 | 3.0 | 0.00 | 0.00 | 0.00 | 91 | 1013.6 |
| 20260510050008 | 46 | 129 | 1.0 | 6.0 | 0.00 | 0.00 | 0.00 | 91 | 1013.5 |
| 20260510045006 | 46 | 122 | 2.0 | 6.0 | 0.00 | 0.00 | 0.00 | 91 | 1013.6 |
| 20260510044006 | 46 | 123 | 2.0 | 6.0 | 0.00 | 0.00 | 0.00 | 91 | 1013.6 |
| 20260510043008 | 46 | 108 | 1.0 | 3.0 | 0.00 | 0.00 | 0.00 | 91 | 1013.9 |
| 20260510042006 | 45 | 109 | 1.0 | 3.0 | 0.00 | 0.00 | 0.00 | 91 | 1014.0 |
| 20260510041005 | 45 | 115 | 0.0 | 3.0 | 0.00 | 0.00 | 0.00 | 91 | 1014.1 |
| 20260510040008 | 45 | 106 | 0.0 | 2.0 | 0.00 | 0.00 | 0.00 | 90 | 1014.2 |
| 20260510035005 | 45 | 109 | 1.0 | 3.0 | 0.00 | 0.00 | 0.00 | 90 | 1014.4 |
| 20260510034005 | 45 | 109 | 0.0 | 2.0 | 0.00 | 0.00 | 0.00 | 90 | 1014.5 |
| 20260510033008 | 45 | 100 | 0.0 | 3.0 | 0.00 | 0.00 | 0.00 | 90 | 1014.6 |
| 20260510032006 | 45 | 101 | 0.0 | 5.0 | 0.00 | 0.00 | 0.00 | 90 | 1014.5 |
| 20260510031006 | 44 | 106 | 1.0 | 5.0 | 0.00 | 0.00 | 0.00 | 90 | 1014.6 |
| 20260510030008 | 44 | 106 | 2.0 | 6.0 | 0.00 | 0.00 | 0.00 | 89 | 1014.6 |
| 20260510025005 | 44 | 122 | 1.0 | 5.0 | 0.00 | 0.00 | 0.00 | 89 | 1014.6 |
| 20260510024006 | 43 | 114 | 1.0 | 6.0 | 0.00 | 0.00 | 0.00 | 88 | 1014.7 |
| 20260510023008 | 43 | 118 | 2.0 | 7.0 | 0.00 | 0.00 | 0.00 | 87 | 1014.9 |
| 20260510022006 | 43 | 115 | 2.0 | 7.0 | 0.00 | 0.00 | 0.00 | 87 | 1015.1 |
| 20260510021006 | 43 | 118 | 3.0 | 6.0 | 0.00 | 0.00 | 0.00 | 86 | 1015.1 |
| 20260510020009 | 44 | 119 | 1.0 | 7.0 | 0.00 | 0.00 | 0.00 | 86 | 1015.2 |
| 20260510015006 | 44 | 117 | 4.0 | 9.0 | 0.00 | 0.00 | 0.00 | 85 | 1015.2 |
| 20260510014006 | 43 | 116 | 3.0 | 9.0 | 0.00 | 0.00 | 0.00 | 84 | 1015.2 |
| 20260510013008 | 43 | 111 | 2.0 | 5.0 | 0.00 | 0.00 | 0.00 | 84 | 1015.5 |
| 20260510012006 | 43 | 113 | 3.0 | 7.0 | 0.00 | 0.00 | 0.00 | 84 | 1015.6 |
| 20260510011006 | 43 | 110 | 2.0 | 7.0 | 0.00 | 0.00 | 0.00 | 85 | 1015.6 |
| 20260510010009 | 42 | 104 | 2.0 | 7.0 | 0.00 | 0.00 | 0.00 | 85 | 1015.7 |
| 20260510005006 | 42 | 99 | 2.0 | 5.0 | 0.00 | 0.00 | 0.00 | 85 | 1016.0 |
| 20260510004006 | 42 | 104 | 1.0 | 6.0 | 0.00 | 0.00 | 0.00 | 85 | 1016.2 |
| 20260510003009 | 42 | 103 | 1.0 | 3.0 | 0.00 | 0.00 | 0.00 | 85 | 1016.4 |
| 20260510002006 | 42 | 95 | 0.0 | 3.0 | 0.00 | 0.00 | 0.00 | 85 | 1016.7 |
| 20260510001006 | 41 | 103 | 0.0 | 3.0 | 0.00 | 0.00 | 0.00 | 84 | 1016.8 |
| 20260510000008 | 41 | 98 | 0.0 | 2.0 | 0.00 | 0.00 | 0.00 | 83 | 1016.9 |
| 20260509235006 | 41 | 115 | 0.0 | 1.0 | 0.00 | 0.00 | 0.00 | 82 | 1017.0 |
| 20260509234006 | 42 | 116 | 0.0 | 0.0 | 0.00 | 0.00 | 0.00 | 80 | 1017.2 |
| 20260509233008 | 42 | 132 | 0.0 | 0.0 | 0.00 | 0.00 | 0.00 | 80 | 1017.3 |
| 20260509232005 | 42 | 134 | 0.0 | 1.0 | 0.00 | 0.00 | 0.00 | 80 | 1017.3 |
| 20260509231005 | 42 | 134 | 0.0 | 1.0 | 0.00 | 0.00 | 0.00 | 80 | 1017.5 |
| 20260509230008 | 42 | 134 | 0.0 | 0.0 | 0.00 | 0.00 | 0.00 | 81 | 1017.7 |
| 20260509225006 | 42 | 134 | 0.0 | 0.0 | 0.00 | 0.00 | 0.00 | 80 | 1017.8 |
| 20260509224005 | 43 | 134 | 0.0 | 0.0 | 0.00 | 0.00 | 0.00 | 79 | 1017.8 |
| 20260509223008 | 43 | 134 | 0.0 | 0.0 | 0.00 | 0.00 | 0.00 | 79 | 1017.8 |
| 20260509222006 | 43 | 134 | 0.0 | 0.0 | 0.00 | 0.00 | 0.00 | 78 | 1017.8 |
| 20260509221006 | 44 | 134 | 0.0 | 0.0 | 0.00 | 0.00 | 0.00 | 77 | 1017.8 |
| 20260509220009 | 44 | 134 | 0.0 | 0.0 | 0.00 | 0.00 | 0.00 | 77 | 1017.9 |
| 20260509215006 | 44 | 134 | 0.0 | 0.0 | 0.00 | 0.00 | 0.00 | 76 | 1017.9 |
| 20260509214006 | 45 | 134 | 0.0 | 0.0 | 0.00 | 0.00 | 0.00 | 77 | 1018.1 |
| 20260509213008 | 45 | 134 | 0.0 | 0.0 | 0.00 | 0.00 | 0.00 | 77 | 1018.1 |
| 20260509212006 | 45 | 134 | 0.0 | 1.0 | 0.00 | 0.00 | 0.00 | 77 | 1018.1 |
| 20260509211006 | 46 | 134 | 0.0 | 1.0 | 0.00 | 0.00 | 0.00 | 76 | 1018.1 |
| 20260509210008 | 46 | 134 | 0.0 | 1.0 | 0.00 | 0.00 | 0.00 | 75 | 1018.2 |
| 20260509205005 | 46 | 134 | 0.0 | 1.0 | 0.00 | 0.00 | 0.00 | 74 | 1018.3 |
| 20260509204006 | 47 | 134 | 0.0 | 2.0 | 0.00 | 0.00 | 0.00 | 74 | 1018.3 |
| 20260509203008 | 47 | 133 | 0.0 | 3.0 | 0.00 | 0.00 | 0.00 | 74 | 1018.3 |
| 20260509202006 | 48 | 129 | 0.0 | 3.0 | 0.00 | 0.00 | 0.00 | 73 | 1018.3 |
| 20260509201005 | 48 | 120 | 0.0 | 3.0 | 0.00 | 0.00 | 0.00 | 71 | 1018.3 |
| 20260509200008 | 49 | 134 | 1.0 | 3.0 | 0.00 | 0.00 | 0.00 | 70 | 1018.4 |
| 20260509195006 | 49 | 139 | 0.0 | 5.0 | 0.00 | 0.00 | 0.00 | 68 | 1018.4 |
| 20260509194005 | 49 | 123 | 1.0 | 6.0 | 0.00 | 0.00 | 0.00 | 66 | 1018.3 |
| 20260509193008 | 50 | 130 | 1.0 | 6.0 | 0.00 | 0.00 | 0.00 | 63 | 1018.3 |
| 20260509192005 | 51 | 139 | 3.0 | 7.0 | 0.00 | 0.00 | 0.00 | 61 | 1018.3 |
| 20260509191006 | 51 | 136 | 2.0 | 10.0 | 0.00 | 0.00 | 0.00 | 60 | 1018.3 |
| 20260509190019 | 52 | 135 | 3.0 | 10.0 | 0.00 | 0.00 | 0.00 | 59 | 1018.2 |
| 20260509185005 | 53 | 130 | 2.0 | 7.0 | 0.00 | 0.00 | 0.00 | 58 | 1018.1 |
| 20260509184006 | 53 | 127 | 2.0 | 8.0 | 0.00 | 0.00 | 0.00 | 56 | 1017.9 |
| 20260509183008 | 54 | 128 | 4.0 | 12.0 | 0.00 | 0.00 | 0.00 | 53 | 1017.9 |
| 20260509182006 | 55 | 125 | 2.0 | 12.0 | 0.00 | 0.00 | 0.00 | 50 | 1017.9 |
| 20260509181006 | 56 | 146 | 5.0 | 13.0 | 0.00 | 0.00 | 0.00 | 46 | 1017.9 |
| 20260509180009 | 56 | 144 | 3.0 | 12.0 | 0.00 | 0.00 | 0.00 | 45 | 1018.0 |
| 20260509175008 | 57 | 140 | 5.0 | 12.0 | 0.00 | 0.00 | 0.00 | 44 | 1018.0 |
| 20260509174006 | 57 | 151 | 4.0 | 12.0 | 0.00 | 0.00 | 0.00 | 43 | 1018.0 |
| 20260509173008 | 57 | 134 | 5.0 | 12.0 | 0.00 | 0.00 | 0.00 | 42 | 1018.1 |
| 20260509172006 | 57 | 142 | 2.0 | 12.0 | 0.00 | 0.00 | 0.00 | 43 | 1018.2 |
| 20260509171006 | 57 | 149 | 5.0 | 13.0 | 0.00 | 0.00 | 0.00 | 43 | 1018.2 |
| 20260509170009 | 57 | 151 | 8.0 | 15.0 | 0.00 | 0.00 | 0.00 | 41 | 1018.2 |
| 20260509165006 | 57 | 150 | 7.0 | 12.0 | 0.00 | 0.00 | 0.00 | 42 | 1018.3 |
| 20260509164005 | 58 | 146 | 6.0 | 15.0 | 0.00 | 0.00 | 0.00 | 41 | 1018.3 |
| 20260509163009 | 58 | 132 | 7.0 | 15.0 | 0.00 | 0.00 | 0.00 | 41 | 1018.3 |
| 20260509162006 | 58 | 119 | 9.0 | 16.0 | 0.00 | 0.00 | 0.00 | 40 | 1018.3 |
| 20260509161005 | 59 | 152 | 6.0 | 14.0 | 0.00 | 0.00 | 0.00 | 41 | 1018.4 |
| 20260509160008 | 59 | 133 | 2.0 | 13.0 | 0.00 | 0.00 | 0.00 | 42 | 1018.5 |
| 20260509155006 | 60 | 133 | 7.0 | 13.0 | 0.00 | 0.00 | 0.00 | 39 | 1018.8 |
| 20260509154006 | 60 | 147 | 8.0 | 15.0 | 0.00 | 0.00 | 0.00 | 38 | 1018.8 |
| 20260509153009 | 61 | 143 | 8.0 | 13.0 | 0.00 | 0.00 | 0.00 | 39 | 1019.0 |
| 20260509152006 | 61 | 138 | 3.0 | 15.0 | 0.00 | 0.00 | 0.00 | 39 | 1018.9 |
| 20260509151006 | 61 | 129 | 5.0 | 13.0 | 0.00 | 0.00 | 0.00 | 39 | 1019.0 |
| 20260509150008 | 62 | 129 | 8.0 | 14.0 | 0.00 | 0.00 | 0.00 | 36 | 1019.3 |